Clackamas, OR

8:40 PM PST on February 07, 2016 (GMT -0800)
Southern Ridge Neighborhood | | Change Station
CLOSE
Current Station
Personal Weather Station
Location: Happy Valley, OR
Elevation: 640 ft
Nearby Weather Stations

Elev 640 ft 45.43 °N, 122.51 °W | Updated 21 seconds ago

Clear
Clear
54.7 °F
Feels Like 54.7 °F
N
3.4
Wind Variable Wind from SE
Gusts 4.9 mph

Today
High -- | Low -- °F
--% Chance of Precip.
Yesterday
High -- | Low -- °F
Precip. -- in
Pressure 30.45 in
Visibility 10.0 miles
Clouds Clear
Dew Point 36 °F
Humidity 50%
Rainfall 0.00 in
Snow Depth Not available.
7:23 AM 5:25 PM
Waning Crescent, 0% visible
METAR KTTD 080353Z AUTO 09020G28KT 10SM CLR 12/03 A3045 RMK AO2 PK WND 09028/0346 SLP312 T01170033
Pressure 30.45 in
Visibility 10.0 miles
Clouds Clear
Dew Point 36 °F
Humidity 50%
Rainfall 0.00 in
Snow Depth Not available.
7:23 AM 5:25 PM
Waning Crescent, 0% visible
METAR KTTD 080353Z AUTO 09020G28KT 10SM CLR 12/03 A3045 RMK AO2 PK WND 09028/0346 SLP312 T01170033

10-Day Weather Forecast

Almanac

Astronomy

Feb. 07, 2016 Rise Set
Actual Time
Civil Twilight
Nautical Twilight
Astronomical Twilight
Moon
Length of Visible Light
Length of Day
Tomorrow will be .
, % of the Moon is Illuminated

Today's Extremes

State Highs State Lows

Community

WunderPhotos

Upload Photos

1,891,382 photos uploaded!

WunderBlog® & News

Nearby

Air Quality

  Air Quality AQ Index Pollutant
Not available.

Snow Depth

Station Depth Elevation

Earthquake Activity

City Distance Mag. Time & Date
Minimum magnitude displayed is 2.5.

Coastal Water Temperatures

Place Temperature

Stations

Nearby Weather Stations

Station Location Temp. Windchill Dew Point Humidity Wind Precip. Elev Updated Type
                   

Watches & Warnings

There are currently no watches in effect.